Sign-in with your pilot id or email, or register

ICAO: EDDM Name / Country: Munich International Airport / Germany
Latitude: 48.3538 Longitude: 11.7861
Total Arrivals:
Strict Standards: Non-static method AirportData::getarrflights() should not be called statically, assuming $this from incompatible context in /var/www/customers/vh-7192/web/home/phpvms/core/templates/airport_info.tpl on line 18
2
Total Departures:
Strict Standards: Non-static method AirportData::getdeptflights() should not be called statically, assuming $this from incompatible context in /var/www/customers/vh-7192/web/home/phpvms/core/templates/airport_info.tpl on line 21
2
Latest Arrival: MTA11P (LHBP-EDDM) Tibor Berces Latest Departure: MTA11P (EDDM-LHBP) Tibor Berces
Metar: EDDM 271120Z 13007KT 090V170 9999 FEW045 14/05 Q1005 NOSIG
More info

Charts for EDDM


NOTAM


Warning: file_get_contents(http://api.vateud.net/notams/EDDM.json): failed to open stream: Redirection limit reached, aborting in /var/www/customers/vh-7192/web/home/phpvms/core/common/NOTAMSData.class.php on line 18

Warning: Invalid argument supplied for foreach() in /var/www/customers/vh-7192/web/home/phpvms/core/common/NOTAMSData.class.php on line 22

Munich International Airport